Dreyer, Texas
Current Conditions -  °F | °C
As of 7:15 PM on Friday 28 Nov 2014 (Local Time) from KT20 Reporting Station
Clear Clear  
Wind Chill: 62°   Ceiling: Unl
Heat Index: 62°   Visibility: 10mi
Dew Point: 50°   Wind: 7mph
Humidity: 64%   Direction: 140°SE
Pressure: 30.13"   Gusts: NA
Location:  29.4258°N, 97.1461°W
Report Text: KT20 290115Z AUTO 14006KT 10SM CLR 17/10 A3013 RMK AO2 T01670098
Loading
Personal Weather Stations






























Interactive Weather Map New forecast layout! Learn more

10-Day Weather Forecast

Advertisements
Track Severe Weather on mobile